sensor_id;sensor_type;location;lat;lon;timestamp;pressure;altitude;pressure_sealevel;temperature;humidity
61914;BME280;50095;53.336;-1.488;2022-08-19T00:01:27;99351.12;;;22.90;48.47
61914;BME280;50095;53.336;-1.488;2022-08-19T00:03:55;99346.83;;;22.61;48.49
61914;BME280;50095;53.336;-1.488;2022-08-19T00:06:22;99350.85;;;23.28;48.13
61914;BME280;50095;53.336;-1.488;2022-08-19T00:08:50;99349.91;;;22.79;48.44
61914;BME280;50095;53.336;-1.488;2022-08-19T00:11:17;99357.89;;;22.83;48.34
61914;BME280;50095;53.336;-1.488;2022-08-19T00:13:45;99355.54;;;22.71;48.51
61914;BME280;50095;53.336;-1.488;2022-08-19T00:16:13;99353.82;;;22.74;48.48
61914;BME280;50095;53.336;-1.488;2022-08-19T00:18:40;99353.10;;;22.43;48.71
61914;BME280;50095;53.336;-1.488;2022-08-19T00:21:08;99357.05;;;22.64;48.80
61914;BME280;50095;53.336;-1.488;2022-08-19T00:23:35;99355.86;;;22.67;48.77
61914;BME280;50095;53.336;-1.488;2022-08-19T00:26:03;99358.01;;;22.75;48.56
61914;BME280;50095;53.336;-1.488;2022-08-19T00:28:30;99362.93;;;22.48;48.52
61914;BME280;50095;53.336;-1.488;2022-08-19T00:30:58;99365.32;;;22.42;48.58
61914;BME280;50095;53.336;-1.488;2022-08-19T00:33:25;99371.52;;;22.71;48.45
61914;BME280;50095;53.336;-1.488;2022-08-19T00:35:54;99379.78;;;22.86;49.15
61914;BME280;50095;53.336;-1.488;2022-08-19T00:38:22;99385.34;;;23.24;47.56
61914;BME280;50095;53.336;-1.488;2022-08-19T00:40:49;99393.72;;;22.71;48.01
61914;BME280;50095;53.336;-1.488;2022-08-19T00:43:21;99399.25;;;22.03;47.97
61914;BME280;50095;53.336;-1.488;2022-08-19T00:45:49;99405.17;;;22.61;46.90
61914;BME280;50095;53.336;-1.488;2022-08-19T00:48:17;99402.34;;;22.19;49.22
61914;BME280;50095;53.336;-1.488;2022-08-19T00:50:45;99400.43;;;22.66;47.65
61914;BME280;50095;53.336;-1.488;2022-08-19T00:53:15;99400.81;;;21.88;47.50
61914;BME280;50095;53.336;-1.488;2022-08-19T00:55:45;99401.61;;;21.19;48.56
61914;BME280;50095;53.336;-1.488;2022-08-19T00:58:16;99394.02;;;21.82;48.02
61914;BME280;50095;53.336;-1.488;2022-08-19T01:00:45;99395.67;;;21.81;48.83
61914;BME280;50095;53.336;-1.488;2022-08-19T01:03:17;99399.54;;;22.12;48.89
61914;BME280;50095;53.336;-1.488;2022-08-19T01:05:46;99402.97;;;21.98;49.30
61914;BME280;50095;53.336;-1.488;2022-08-19T01:08:16;99405.38;;;21.82;49.13
61914;BME280;50095;53.336;-1.488;2022-08-19T01:10:47;99403.78;;;21.63;45.90
61914;BME280;50095;53.336;-1.488;2022-08-19T01:13:18;99410.91;;;21.31;47.12
61914;BME280;50095;53.336;-1.488;2022-08-19T01:15:50;99412.55;;;21.73;49.32
61914;BME280;50095;53.336;-1.488;2022-08-19T01:18:20;99405.42;;;21.94;48.15
61914;BME280;50095;53.336;-1.488;2022-08-19T01:20:48;99414.74;;;21.72;49.21
61914;BME280;50095;53.336;-1.488;2022-08-19T01:23:16;99414.82;;;21.80;49.43
61914;BME280;50095;53.336;-1.488;2022-08-19T01:25:46;99415.62;;;22.01;48.71
61914;BME280;50095;53.336;-1.488;2022-08-19T01:28:17;99419.88;;;21.84;49.13
61914;BME280;50095;53.336;-1.488;2022-08-19T01:30:45;99423.26;;;21.96;48.86
61914;BME280;50095;53.336;-1.488;2022-08-19T01:33:13;99426.27;;;22.16;46.77
61914;BME280;50095;53.336;-1.488;2022-08-19T01:35:41;99431.31;;;22.20;48.37
61914;BME280;50095;53.336;-1.488;2022-08-19T01:38:19;99429.35;;;21.94;48.91
61914;BME280;50095;53.336;-1.488;2022-08-19T01:40:47;99431.10;;;22.14;49.05
61914;BME280;50095;53.336;-1.488;2022-08-19T01:43:14;99435.25;;;22.29;47.31
61914;BME280;50095;53.336;-1.488;2022-08-19T01:45:42;99433.97;;;21.77;48.70
61914;BME280;50095;53.336;-1.488;2022-08-19T01:48:09;99430.73;;;21.96;47.38
61914;BME280;50095;53.336;-1.488;2022-08-19T01:50:37;99422.76;;;22.09;48.29
61914;BME280;50095;53.336;-1.488;2022-08-19T01:53:06;99423.39;;;22.35;48.12
61914;BME280;50095;53.336;-1.488;2022-08-19T01:55:35;99427.86;;;22.21;48.41
61914;BME280;50095;53.336;-1.488;2022-08-19T01:58:06;99428.05;;;22.15;48.69
61914;BME280;50095;53.336;-1.488;2022-08-19T02:00:35;99435.39;;;22.10;48.71
61914;BME280;50095;53.336;-1.488;2022-08-19T02:03:02;99430.63;;;22.02;48.39
61914;BME280;50095;53.336;-1.488;2022-08-19T02:05:30;99434.75;;;22.01;48.17
61914;BME280;50095;53.336;-1.488;2022-08-19T02:07:58;99437.44;;;21.95;47.66
61914;BME280;50095;53.336;-1.488;2022-08-19T02:10:25;99442.56;;;22.13;48.36
61914;BME280;50095;53.336;-1.488;2022-08-19T02:12:53;99452.45;;;21.93;48.73
61914;BME280;50095;53.336;-1.488;2022-08-19T02:15:21;99453.47;;;21.66;48.90
61914;BME280;50095;53.336;-1.488;2022-08-19T02:17:48;99455.13;;;22.37;47.88
61914;BME280;50095;53.336;-1.488;2022-08-19T02:20:16;99457.32;;;22.23;47.78
61914;BME280;50095;53.336;-1.488;2022-08-19T02:22:43;99466.03;;;21.61;48.84
61914;BME280;50095;53.336;-1.488;2022-08-19T02:25:12;99466.48;;;21.72;49.10
61914;BME280;50095;53.336;-1.488;2022-08-19T02:27:40;99468.44;;;21.83;48.71
61914;BME280;50095;53.336;-1.488;2022-08-19T02:30:17;99465.25;;;21.74;48.88
61914;BME280;50095;53.336;-1.488;2022-08-19T02:32:45;99466.31;;;21.70;48.21
61914;BME280;50095;53.336;-1.488;2022-08-19T02:35:13;99464.94;;;21.93;47.82
61914;BME280;50095;53.336;-1.488;2022-08-19T02:37:40;99464.75;;;21.44;48.64
61914;BME280;50095;53.336;-1.488;2022-08-19T02:40:09;99467.32;;;21.79;48.04
61914;BME280;50095;53.336;-1.488;2022-08-19T02:42:37;99466.22;;;22.15;46.61
61914;BME280;50095;53.336;-1.488;2022-08-19T02:45:05;99459.23;;;21.88;45.93
61914;BME280;50095;53.336;-1.488;2022-08-19T02:47:33;99467.20;;;21.77;47.65
61914;BME280;50095;53.336;-1.488;2022-08-19T02:50:01;99471.83;;;22.05;47.36
61914;BME280;50095;53.336;-1.488;2022-08-19T02:52:30;99479.79;;;21.94;47.97
61914;BME280;50095;53.336;-1.488;2022-08-19T02:54:59;99476.97;;;21.42;48.63
61914;BME280;50095;53.336;-1.488;2022-08-19T02:57:26;99473.29;;;21.41;48.76
61914;BME280;50095;53.336;-1.488;2022-08-19T02:59:53;99477.66;;;21.44;48.68
61914;BME280;50095;53.336;-1.488;2022-08-19T03:02:21;99480.71;;;21.44;48.56
61914;BME280;50095;53.336;-1.488;2022-08-19T03:04:49;99486.59;;;21.53;48.08
61914;BME280;50095;53.336;-1.488;2022-08-19T03:07:17;99486.95;;;21.34;48.85
61914;BME280;50095;53.336;-1.488;2022-08-19T03:09:45;99492.07;;;21.44;48.70
61914;BME280;50095;53.336;-1.488;2022-08-19T03:12:12;99492.93;;;21.41;48.23
61914;BME280;50095;53.336;-1.488;2022-08-19T03:14:40;99497.35;;;21.50;48.36
61914;BME280;50095;53.336;-1.488;2022-08-19T03:17:08;99489.12;;;21.50;48.43
61914;BME280;50095;53.336;-1.488;2022-08-19T03:19:35;99483.74;;;21.43;48.44
61914;BME280;50095;53.336;-1.488;2022-08-19T03:22:03;99486.56;;;21.44;48.53
61914;BME280;50095;53.336;-1.488;2022-08-19T03:24:30;99490.08;;;21.66;46.30
61914;BME280;50095;53.336;-1.488;2022-08-19T03:26:58;99492.75;;;21.65;46.22
61914;BME280;50095;53.336;-1.488;2022-08-19T03:29:27;99484.30;;;21.68;44.28
61914;BME280;50095;53.336;-1.488;2022-08-19T03:31:55;99488.10;;;21.60;47.05
61914;BME280;50095;53.336;-1.488;2022-08-19T03:34:25;99493.14;;;21.79;46.23
61914;BME280;50095;53.336;-1.488;2022-08-19T03:36:53;99499.35;;;21.45;46.88
61914;BME280;50095;53.336;-1.488;2022-08-19T03:39:21;99501.17;;;21.57;46.79
61914;BME280;50095;53.336;-1.488;2022-08-19T03:41:50;99502.46;;;21.75;46.43
61914;BME280;50095;53.336;-1.488;2022-08-19T03:44:20;99500.82;;;21.47;45.95
61914;BME280;50095;53.336;-1.488;2022-08-19T03:46:50;99498.80;;;21.02;47.98
61914;BME280;50095;53.336;-1.488;2022-08-19T03:49:19;99501.79;;;21.50;48.10
61914;BME280;50095;53.336;-1.488;2022-08-19T03:51:48;99506.29;;;21.04;48.04
61914;BME280;50095;53.336;-1.488;2022-08-19T03:54:18;99508.37;;;21.02;48.17
61914;BME280;50095;53.336;-1.488;2022-08-19T03:56:47;99511.50;;;21.25;47.40
61914;BME280;50095;53.336;-1.488;2022-08-19T03:59:21;99514.75;;;21.25;47.03
61914;BME280;50095;53.336;-1.488;2022-08-19T04:01:49;99512.44;;;21.34;47.94
61914;BME280;50095;53.336;-1.488;2022-08-19T04:04:16;99503.82;;;21.09;47.97
61914;BME280;50095;53.336;-1.488;2022-08-19T04:06:43;99501.20;;;21.08;47.52
61914;BME280;50095;53.336;-1.488;2022-08-19T04:09:11;99504.77;;;21.29;47.98
61914;BME280;50095;53.336;-1.488;2022-08-19T04:11:41;99508.44;;;21.19;48.26
61914;BME280;50095;53.336;-1.488;2022-08-19T04:14:10;99511.02;;;20.79;48.62
61914;BME280;50095;53.336;-1.488;2022-08-19T04:16:38;99517.88;;;21.29;48.62
61914;BME280;50095;53.336;-1.488;2022-08-19T04:19:06;99522.63;;;21.17;48.48
61914;BME280;50095;53.336;-1.488;2022-08-19T04:21:34;99526.63;;;20.82;48.68
61914;BME280;50095;53.336;-1.488;2022-08-19T04:24:03;99532.74;;;21.29;48.77
61914;BME280;50095;53.336;-1.488;2022-08-19T04:26:34;99536.74;;;20.91;48.44
61914;BME280;50095;53.336;-1.488;2022-08-19T04:29:05;99539.87;;;20.96;48.47
61914;BME280;50095;53.336;-1.488;2022-08-19T04:31:33;99532.59;;;21.33;48.64
61914;BME280;50095;53.336;-1.488;2022-08-19T04:34:03;99529.81;;;20.74;48.88
61914;BME280;50095;53.336;-1.488;2022-08-19T04:36:34;99532.99;;;21.02;48.83
61914;BME280;50095;53.336;-1.488;2022-08-19T04:39:06;99535.27;;;20.79;48.74
61914;BME280;50095;53.336;-1.488;2022-08-19T04:41:33;99534.26;;;20.97;48.87
61914;BME280;50095;53.336;-1.488;2022-08-19T04:44:01;99542.30;;;20.98;48.89
61914;BME280;50095;53.336;-1.488;2022-08-19T04:46:29;99541.57;;;20.93;48.94
61914;BME280;50095;53.336;-1.488;2022-08-19T04:48:56;99542.10;;;21.13;49.01
61914;BME280;50095;53.336;-1.488;2022-08-19T04:51:24;99542.53;;;20.63;49.00
61914;BME280;50095;53.336;-1.488;2022-08-19T04:53:52;99549.71;;;21.19;48.83
61914;BME280;50095;53.336;-1.488;2022-08-19T04:56:20;99555.38;;;21.14;48.91
61914;BME280;50095;53.336;-1.488;2022-08-19T04:58:48;99556.97;;;20.63;48.95
61914;BME280;50095;53.336;-1.488;2022-08-19T05:01:20;99559.83;;;21.17;48.83
61914;BME280;50095;53.336;-1.488;2022-08-19T05:03:47;99563.32;;;20.96;48.68
61914;BME280;50095;53.336;-1.488;2022-08-19T05:06:16;99562.37;;;20.70;48.66
61914;BME280;50095;53.336;-1.488;2022-08-19T05:08:44;99562.59;;;21.15;48.66
61914;BME280;50095;53.336;-1.488;2022-08-19T05:11:16;99561.50;;;20.60;48.79
61914;BME280;50095;53.336;-1.488;2022-08-19T05:13:44;99561.99;;;20.97;48.61
61914;BME280;50095;53.336;-1.488;2022-08-19T05:16:12;99568.27;;;20.64;48.68
61914;BME280;50095;53.336;-1.488;2022-08-19T05:18:40;99574.54;;;20.68;48.61
61914;BME280;50095;53.336;-1.488;2022-08-19T05:21:08;99574.42;;;21.12;48.69
61914;BME280;50095;53.336;-1.488;2022-08-19T05:23:36;99576.04;;;21.05;48.68
61914;BME280;50095;53.336;-1.488;2022-08-19T05:26:04;99582.32;;;21.27;48.53
61914;BME280;50095;53.336;-1.488;2022-08-19T05:28:32;99588.24;;;20.97;48.17
61914;BME280;50095;53.336;-1.488;2022-08-19T05:31:00;99594.56;;;21.23;48.14
61914;BME280;50095;53.336;-1.488;2022-08-19T05:33:27;99596.93;;;21.09;47.87
61914;BME280;50095;53.336;-1.488;2022-08-19T05:35:55;99598.30;;;21.17;47.75
61914;BME280;50095;53.336;-1.488;2022-08-19T05:38:22;99597.53;;;21.15;47.73
61914;BME280;50095;53.336;-1.488;2022-08-19T05:40:50;99601.83;;;21.47;47.62
61914;BME280;50095;53.336;-1.488;2022-08-19T05:43:17;99606.84;;;21.18;47.64
61914;BME280;50095;53.336;-1.488;2022-08-19T05:45:45;99609.67;;;21.21;47.54
61914;BME280;50095;53.336;-1.488;2022-08-19T05:48:13;99608.02;;;21.01;47.44
61914;BME280;50095;53.336;-1.488;2022-08-19T05:50:41;99607.83;;;21.30;47.28
61914;BME280;50095;53.336;-1.488;2022-08-19T05:53:09;99607.81;;;21.29;47.27
61914;BME280;50095;53.336;-1.488;2022-08-19T05:55:36;99610.29;;;21.33;47.15
61914;BME280;50095;53.336;-1.488;2022-08-19T05:58:03;99611.73;;;21.37;47.04
61914;BME280;50095;53.336;-1.488;2022-08-19T06:00:31;99608.47;;;21.31;47.11
61914;BME280;50095;53.336;-1.488;2022-08-19T06:02:58;99611.36;;;21.35;46.99
61914;BME280;50095;53.336;-1.488;2022-08-19T06:05:26;99607.84;;;21.04;47.09
61914;BME280;50095;53.336;-1.488;2022-08-19T06:07:53;99604.13;;;21.24;47.13
61914;BME280;50095;53.336;-1.488;2022-08-19T06:10:21;99602.59;;;21.54;47.03
61914;BME280;50095;53.336;-1.488;2022-08-19T06:12:48;99604.18;;;21.25;47.04
61914;BME280;50095;53.336;-1.488;2022-08-19T06:15:16;99608.30;;;21.57;46.94
61914;BME280;50095;53.336;-1.488;2022-08-19T06:17:44;99607.42;;;21.29;46.94
61914;BME280;50095;53.336;-1.488;2022-08-19T06:20:14;99609.05;;;21.23;47.03
61914;BME280;50095;53.336;-1.488;2022-08-19T06:22:44;99612.37;;;21.75;46.96
61914;BME280;50095;53.336;-1.488;2022-08-19T06:25:13;99617.12;;;21.56;46.86
61914;BME280;50095;53.336;-1.488;2022-08-19T06:27:40;99617.48;;;21.31;46.84
61914;BME280;50095;53.336;-1.488;2022-08-19T06:30:09;99616.59;;;21.58;46.81
61914;BME280;50095;53.336;-1.488;2022-08-19T06:32:37;99619.06;;;21.71;46.63
61914;BME280;50095;53.336;-1.488;2022-08-19T06:35:05;99618.30;;;21.43;46.62
61914;BME280;50095;53.336;-1.488;2022-08-19T06:37:33;99618.29;;;21.43;46.60
61914;BME280;50095;53.336;-1.488;2022-08-19T06:40:00;99620.47;;;21.42;46.59
61914;BME280;50095;53.336;-1.488;2022-08-19T06:42:28;99623.80;;;21.49;46.48
61914;BME280;50095;53.336;-1.488;2022-08-19T06:44:55;99626.43;;;21.50;46.42
61914;BME280;50095;53.336;-1.488;2022-08-19T06:47:23;99628.93;;;21.60;46.11
61914;BME280;50095;53.336;-1.488;2022-08-19T06:49:53;99629.30;;;21.55;46.25
61914;BME280;50095;53.336;-1.488;2022-08-19T06:52:21;99626.73;;;21.38;46.03
61914;BME280;50095;53.336;-1.488;2022-08-19T06:54:48;99627.58;;;21.63;45.80
61914;BME280;50095;53.336;-1.488;2022-08-19T06:57:16;99632.21;;;21.55;45.93
61914;BME280;50095;53.336;-1.488;2022-08-19T06:59:43;99636.16;;;21.60;45.27
61914;BME280;50095;53.336;-1.488;2022-08-19T07:02:11;99637.34;;;21.52;43.28
61914;BME280;50095;53.336;-1.488;2022-08-19T07:04:38;99641.97;;;21.65;45.33
61914;BME280;50095;53.336;-1.488;2022-08-19T07:07:07;99640.01;;;21.38;45.85
61914;BME280;50095;53.336;-1.488;2022-08-19T07:09:36;99645.15;;;21.61;45.38
61914;BME280;50095;53.336;-1.488;2022-08-19T07:12:05;99642.69;;;21.43;42.31
61914;BME280;50095;53.336;-1.488;2022-08-19T07:14:33;99645.70;;;21.61;45.43
61914;BME280;50095;53.336;-1.488;2022-08-19T07:17:01;99647.57;;;21.78;45.09
61914;BME280;50095;53.336;-1.488;2022-08-19T07:19:29;99644.95;;;21.72;45.06
61914;BME280;50095;53.336;-1.488;2022-08-19T07:21:58;99642.11;;;21.87;44.83
61914;BME280;50095;53.336;-1.488;2022-08-19T07:24:26;99645.03;;;21.53;45.01
61914;BME280;50095;53.336;-1.488;2022-08-19T07:26:57;99647.42;;;21.97;44.73
61914;BME280;50095;53.336;-1.488;2022-08-19T07:29:25;99646.36;;;21.59;44.27
61914;BME280;50095;53.336;-1.488;2022-08-19T07:31:53;99650.86;;;21.57;44.04
61914;BME280;50095;53.336;-1.488;2022-08-19T07:34:20;99652.32;;;21.95;44.12
61914;BME280;50095;53.336;-1.488;2022-08-19T07:36:48;99656.91;;;21.87;41.46
61914;BME280;50095;53.336;-1.488;2022-08-19T07:39:20;99654.35;;;21.39;42.39
61914;BME280;50095;53.336;-1.488;2022-08-19T07:41:48;99648.74;;;21.28;42.40
61914;BME280;50095;53.336;-1.488;2022-08-19T07:44:17;99650.52;;;21.93;43.69
61914;BME280;50095;53.336;-1.488;2022-08-19T07:46:49;99655.44;;;22.02;42.87
61914;BME280;50095;53.336;-1.488;2022-08-19T07:49:17;99659.20;;;21.80;42.69
61914;BME280;50095;53.336;-1.488;2022-08-19T07:51:46;99663.20;;;22.21;42.46
61914;BME280;50095;53.336;-1.488;2022-08-19T07:54:15;99658.40;;;22.74;41.75
61914;BME280;50095;53.336;-1.488;2022-08-19T07:56:43;99660.33;;;22.45;41.72
61914;BME280;50095;53.336;-1.488;2022-08-19T07:59:10;99661.46;;;22.39;41.73
61914;BME280;50095;53.336;-1.488;2022-08-19T08:01:39;99670.95;;;23.03;41.04
61914;BME280;50095;53.336;-1.488;2022-08-19T08:04:07;99675.98;;;23.03;40.90
61914;BME280;50095;53.336;-1.488;2022-08-19T08:06:34;99684.74;;;22.78;40.60
61914;BME280;50095;53.336;-1.488;2022-08-19T08:09:03;99682.36;;;22.70;41.08
61914;BME280;50095;53.336;-1.488;2022-08-19T08:11:31;99682.92;;;22.63;40.75
61914;BME280;50095;53.336;-1.488;2022-08-19T08:13:59;99683.81;;;22.84;39.50
61914;BME280;50095;53.336;-1.488;2022-08-19T08:16:26;99682.97;;;22.64;41.11
61914;BME280;50095;53.336;-1.488;2022-08-19T08:18:54;99684.65;;;22.35;41.17
61914;BME280;50095;53.336;-1.488;2022-08-19T08:21:23;99687.98;;;22.68;41.13
61914;BME280;50095;53.336;-1.488;2022-08-19T08:23:51;99691.51;;;22.69;40.05
61914;BME280;50095;53.336;-1.488;2022-08-19T08:26:18;99688.43;;;22.62;40.64
61914;BME280;50095;53.336;-1.488;2022-08-19T08:28:46;99686.89;;;22.87;40.69
61914;BME280;50095;53.336;-1.488;2022-08-19T08:31:14;99686.94;;;22.88;40.63
61914;BME280;50095;53.336;-1.488;2022-08-19T08:33:41;99691.11;;;22.61;40.53
61914;BME280;50095;53.336;-1.488;2022-08-19T08:36:09;99695.09;;;22.84;39.99
61914;BME280;50095;53.336;-1.488;2022-08-19T08:38:37;99696.94;;;22.93;39.67
61914;BME280;50095;53.336;-1.488;2022-08-19T08:41:10;99691.89;;;22.84;39.89
61914;BME280;50095;53.336;-1.488;2022-08-19T08:43:45;99688.84;;;22.46;39.57
61914;BME280;50095;53.336;-1.488;2022-08-19T08:46:19;99688.30;;;22.81;39.43
61914;BME280;50095;53.336;-1.488;2022-08-19T08:48:51;99690.45;;;22.73;39.22
61914;BME280;50095;53.336;-1.488;2022-08-19T08:51:25;99682.91;;;22.77;37.89
61914;BME280;50095;53.336;-1.488;2022-08-19T08:53:54;99689.17;;;22.65;39.05
61914;BME280;50095;53.336;-1.488;2022-08-19T08:56:22;99684.28;;;22.85;38.44
61914;BME280;50095;53.336;-1.488;2022-08-19T08:58:56;99688.04;;;23.01;38.87
61914;BME280;50095;53.336;-1.488;2022-08-19T09:01:25;99691.80;;;22.61;38.63
61914;BME280;50095;53.336;-1.488;2022-08-19T09:03:52;99690.38;;;22.82;38.84
61914;BME280;50095;53.336;-1.488;2022-08-19T09:06:37;99695.89;;;22.46;38.38
61914;BME280;50095;53.336;-1.488;2022-08-19T09:09:14;99695.13;;;22.74;38.43
61914;BME280;50095;53.336;-1.488;2022-08-19T09:11:55;99699.50;;;23.10;38.47
61914;BME280;50095;53.336;-1.488;2022-08-19T09:14:34;99697.88;;;23.39;38.10
61914;BME280;50095;53.336;-1.488;2022-08-19T09:17:03;99702.09;;;23.63;37.67
61914;BME280;50095;53.336;-1.488;2022-08-19T09:19:30;99695.06;;;23.60;37.03
61914;BME280;50095;53.336;-1.488;2022-08-19T09:21:58;99697.43;;;23.86;36.54
61914;BME280;50095;53.336;-1.488;2022-08-19T09:24:25;99695.16;;;23.59;36.44
61914;BME280;50095;53.336;-1.488;2022-08-19T09:26:53;99696.17;;;23.51;36.97
61914;BME280;50095;53.336;-1.488;2022-08-19T09:29:20;99699.51;;;23.84;37.01
61914;BME280;50095;53.336;-1.488;2022-08-19T09:31:48;99697.72;;;23.37;36.70
61914;BME280;50095;53.336;-1.488;2022-08-19T09:34:15;99694.97;;;23.59;36.62
61914;BME280;50095;53.336;-1.488;2022-08-19T09:36:43;99696.57;;;24.14;35.48
61914;BME280;50095;53.336;-1.488;2022-08-19T09:39:10;99702.08;;;24.13;35.47
61914;BME280;50095;53.336;-1.488;2022-08-19T09:41:38;99697.79;;;24.37;35.59
61914;BME280;50095;53.336;-1.488;2022-08-19T09:44:06;99706.87;;;24.57;33.58
61914;BME280;50095;53.336;-1.488;2022-08-19T09:46:34;99691.49;;;24.19;35.16
61914;BME280;50095;53.336;-1.488;2022-08-19T09:49:01;99696.04;;;23.70;35.68
61914;BME280;50095;53.336;-1.488;2022-08-19T09:51:29;99700.63;;;23.71;35.19
61914;BME280;50095;53.336;-1.488;2022-08-19T09:54:00;99698.11;;;24.21;35.03
61914;BME280;50095;53.336;-1.488;2022-08-19T09:56:28;99700.98;;;23.96;35.28
61914;BME280;50095;53.336;-1.488;2022-08-19T09:58:58;99703.89;;;24.47;34.27
61914;BME280;50095;53.336;-1.488;2022-08-19T10:01:28;99706.46;;;24.58;33.99
61914;BME280;50095;53.336;-1.488;2022-08-19T10:03:57;99707.45;;;24.64;34.19
61914;BME280;50095;53.336;-1.488;2022-08-19T10:06:27;99707.56;;;24.39;34.38
61914;BME280;50095;53.336;-1.488;2022-08-19T10:08:54;99711.44;;;23.55;32.34
61914;BME280;50095;53.336;-1.488;2022-08-19T10:11:23;99705.06;;;24.29;34.44
61914;BME280;50095;53.336;-1.488;2022-08-19T10:13:50;99706.24;;;24.13;34.15
61914;BME280;50095;53.336;-1.488;2022-08-19T10:16:20;99708.60;;;24.22;33.93
61914;BME280;50095;53.336;-1.488;2022-08-19T10:18:47;99708.48;;;24.26;34.44
61914;BME280;50095;53.336;-1.488;2022-08-19T10:21:18;99706.33;;;24.19;34.45
61914;BME280;50095;53.336;-1.488;2022-08-19T10:23:47;99699.47;;;24.33;33.88
61914;BME280;50095;53.336;-1.488;2022-08-19T10:26:18;99702.69;;;23.25;35.90
61914;BME280;50095;53.336;-1.488;2022-08-19T10:28:47;99694.89;;;24.34;35.04
61914;BME280;50095;53.336;-1.488;2022-08-19T10:31:16;99695.03;;;24.28;35.62
61914;BME280;50095;53.336;-1.488;2022-08-19T10:33:44;99701.56;;;24.67;34.49
61914;BME280;50095;53.336;-1.488;2022-08-19T10:36:13;99702.06;;;25.02;33.40
61914;BME280;50095;53.336;-1.488;2022-08-19T10:38:40;99706.63;;;24.26;33.82
61914;BME280;50095;53.336;-1.488;2022-08-19T10:41:10;99704.48;;;24.42;34.91
61914;BME280;50095;53.336;-1.488;2022-08-19T10:43:38;99705.88;;;23.62;35.12
61914;BME280;50095;53.336;-1.488;2022-08-19T10:46:06;99704.62;;;23.48;34.05
61914;BME280;50095;53.336;-1.488;2022-08-19T10:48:34;99698.88;;;24.17;34.85
61914;BME280;50095;53.336;-1.488;2022-08-19T10:51:02;99704.40;;;23.81;32.49
61914;BME280;50095;53.336;-1.488;2022-08-19T10:53:30;99705.06;;;23.54;32.86
61914;BME280;50095;53.336;-1.488;2022-08-19T10:55:57;99691.48;;;23.84;33.99
61914;BME280;50095;53.336;-1.488;2022-08-19T10:58:25;99690.31;;;24.73;33.84
61914;BME280;50095;53.336;-1.488;2022-08-19T11:00:54;99696.43;;;24.16;32.81
61914;BME280;50095;53.336;-1.488;2022-08-19T11:03:23;99695.25;;;23.79;34.71
61914;BME280;50095;53.336;-1.488;2022-08-19T11:05:58;99694.67;;;25.39;33.15
61914;BME280;50095;53.336;-1.488;2022-08-19T11:08:26;99694.49;;;24.43;32.37
61914;BME280;50095;53.336;-1.488;2022-08-19T11:10:54;99698.24;;;24.12;32.69
61914;BME280;50095;53.336;-1.488;2022-08-19T11:13:23;99699.12;;;24.92;32.86
61914;BME280;50095;53.336;-1.488;2022-08-19T11:15:57;99703.16;;;23.31;33.81
61914;BME280;50095;53.336;-1.488;2022-08-19T11:18:25;99703.25;;;24.34;33.99
61914;BME280;50095;53.336;-1.488;2022-08-19T11:20:53;99698.91;;;24.34;33.89
61914;BME280;50095;53.336;-1.488;2022-08-19T11:23:21;99702.67;;;23.46;35.05
61914;BME280;50095;53.336;-1.488;2022-08-19T11:25:47;99692.80;;;24.70;33.29
61914;BME280;50095;53.336;-1.488;2022-08-19T11:28:16;99690.51;;;25.43;33.25
61914;BME280;50095;53.336;-1.488;2022-08-19T11:30:43;99689.20;;;24.99;33.79
61914;BME280;50095;53.336;-1.488;2022-08-19T11:33:11;99697.08;;;24.92;34.16
61914;BME280;50095;53.336;-1.488;2022-08-19T11:35:39;99693.65;;;24.47;33.64
61914;BME280;50095;53.336;-1.488;2022-08-19T11:38:06;99697.42;;;25.01;33.25
61914;BME280;50095;53.336;-1.488;2022-08-19T11:40:34;99698.00;;;24.43;34.24
61914;BME280;50095;53.336;-1.488;2022-08-19T11:43:01;99697.59;;;24.29;33.32
61914;BME280;50095;53.336;-1.488;2022-08-19T11:45:30;99693.49;;;24.62;33.21
61914;BME280;50095;53.336;-1.488;2022-08-19T11:47:57;99693.79;;;23.91;34.92
61914;BME280;50095;53.336;-1.488;2022-08-19T11:50:25;99693.87;;;24.13;34.87
61914;BME280;50095;53.336;-1.488;2022-08-19T11:52:54;99693.15;;;23.32;33.08
61914;BME280;50095;53.336;-1.488;2022-08-19T11:55:22;99697.60;;;24.29;31.75
61914;BME280;50095;53.336;-1.488;2022-08-19T11:57:50;99694.53;;;24.58;33.76
61914;BME280;50095;53.336;-1.488;2022-08-19T12:00:18;99691.58;;;25.09;32.35
61914;BME280;50095;53.336;-1.488;2022-08-19T12:02:46;99699.45;;;24.23;32.17
61914;BME280;50095;53.336;-1.488;2022-08-19T12:05:13;99706.17;;;23.36;32.78
61914;BME280;50095;53.336;-1.488;2022-08-19T12:07:41;99702.91;;;24.60;33.70
61914;BME280;50095;53.336;-1.488;2022-08-19T12:10:09;99702.47;;;24.85;32.96
61914;BME280;50095;53.336;-1.488;2022-08-19T12:12:36;99703.60;;;25.05;32.76
61914;BME280;50095;53.336;-1.488;2022-08-19T12:15:03;99704.86;;;25.28;32.30
61914;BME280;50095;53.336;-1.488;2022-08-19T12:17:31;99707.27;;;24.10;32.99
61914;BME280;50095;53.336;-1.488;2022-08-19T12:19:59;99707.43;;;25.10;31.86
61914;BME280;50095;53.336;-1.488;2022-08-19T12:22:27;99706.51;;;24.13;33.18
61914;BME280;50095;53.336;-1.488;2022-08-19T12:24:55;99708.94;;;25.44;32.68
61914;BME280;50095;53.336;-1.488;2022-08-19T12:27:23;99710.66;;;25.45;31.39
61914;BME280;50095;53.336;-1.488;2022-08-19T12:29:50;99713.01;;;24.70;31.71
61914;BME280;50095;53.336;-1.488;2022-08-19T12:32:17;99707.91;;;25.31;32.36
61914;BME280;50095;53.336;-1.488;2022-08-19T12:34:44;99711.11;;;25.61;32.04
61914;BME280;50095;53.336;-1.488;2022-08-19T12:37:12;99713.75;;;25.54;31.93
61914;BME280;50095;53.336;-1.488;2022-08-19T12:39:41;99717.60;;;25.51;32.07
61914;BME280;50095;53.336;-1.488;2022-08-19T12:42:09;99715.67;;;25.98;32.01
61914;BME280;50095;53.336;-1.488;2022-08-19T12:44:38;99715.69;;;25.94;31.82
61914;BME280;50095;53.336;-1.488;2022-08-19T12:47:07;99712.71;;;25.84;31.73
61914;BME280;50095;53.336;-1.488;2022-08-19T12:49:35;99713.66;;;26.04;31.40
61914;BME280;50095;53.336;-1.488;2022-08-19T12:52:03;99715.77;;;25.96;32.01
61914;BME280;50095;53.336;-1.488;2022-08-19T12:54:31;99713.82;;;26.14;31.37
61914;BME280;50095;53.336;-1.488;2022-08-19T12:56:58;99717.72;;;25.91;31.95